Time;durP1;ratioP1;P1;durP2;ratioP2;P2;SDS_P1;SDS_P2;PMS_P1;PMS_P2;Temp;Humidity;BMP_temperature;BMP_pressure;BME280_temperature;BME280_humidity;BME280_pressure;Samples;Min_cycle;Max_cycle;Signal;HPM_P1;HPM_P2
2023/03/08 00:01:05;;;;;;;;;;;;;;;;;;5054534;28;7133;-59
2023/03/08 00:03:30;;;;;;;;;;;;;;;;;;5054134;28;7054;-59
2023/03/08 00:06:22;;;;;;;;;;;;;;;;;;5054525;28;7073;-59
2023/03/08 00:08:48;;;;;;;;;;;;;;;;;;5054235;28;6942;-59
2023/03/08 00:14:32;;;;;;;;;;;;;;;;;;5054153;28;6999;-59
2023/03/08 00:16:57;;;;;;;;;;;;;;;;;;5054518;28;7179;-59
2023/03/08 00:22:42;;;;;;;;;;;;;;;;;;5054181;28;6999;-59
2023/03/08 00:25:08;;;;;;;;;;;;;;;;;;5054445;28;7116;-59
2023/03/08 00:27:34;;;;;;;;;;;;;;;;;;5054384;28;7352;-59
2023/03/08 00:30:02;;;;;;;;;;;;;;;;;;5054219;28;7137;-59
2023/03/08 00:32:52;;;;;;;;;;;;;;;;;;5054283;28;7202;-59
2023/03/08 00:35:19;;;;;;;;;;;;;;;;;;5053832;28;7189;-59
2023/03/08 00:37:45;;;;;;;;;;;;;;;;;;5053951;28;6822;-59
2023/03/08 00:40:10;;;;;;;;;;;;;;;;;;5054291;28;7090;-59
2023/03/08 00:42:51;;;;;;;;;;;;;;;;;;5054183;28;7084;-59
2023/03/08 00:45:16;;;;;;;;;;;;;;;;;;5053545;28;7135;-58
2023/03/08 00:47:57;;;;;;;;;;;;;;;;;;5054731;28;7145;-59
2023/03/08 00:53:28;;;;;;;;;;;;;;;;;;5053815;28;6975;-59
2023/03/08 00:55:55;;;;;;;;;;;;;;;;;;5053965;28;7216;-59
2023/03/08 00:58:53;;;;;;;;;;;;;;;;;;5054343;28;6958;-58
2023/03/08 01:01:19;;;;;;;;;;;;;;;;;;5057346;28;7174;-59
2023/03/08 01:03:58;;;;;;;;;;;;;;;;;;5057266;28;6941;-59
2023/03/08 01:06:24;;;;;;;;;;;;;;;;;;5057628;28;6945;-59
2023/03/08 01:08:57;;;;;;;;;;;;;;;;;;5057601;28;6954;-59
2023/03/08 01:11:25;;;;;;;;;;;;;;;;;;5057452;28;7409;-59
2023/03/08 01:14:09;;;;;;;;;;;;;;;;;;5057357;28;7065;-59
2023/03/08 01:16:34;;;;;;;;;;;;;;;;;;5057252;28;7057;-59
2023/03/08 01:19:12;;;;;;;;;;;;;;;;;;5057371;28;7129;-59
2023/03/08 01:21:37;;;;;;;;;;;;;;;;;;5057586;28;7165;-59
2023/03/08 01:24:30;;;;;;;;;;;;;;;;;;5056894;28;7048;-59
2023/03/08 01:26:57;;;;;;;;;;;;;;;;;;5058002;28;7144;-59
2023/03/08 01:29:23;;;;;;;;;;;;;;;;;;5056942;28;7278;-59
2023/03/08 01:32:22;;;;;;;;;;;;;;;;;;5056961;28;7269;-59
2023/03/08 01:34:48;;;;;;;;;;;;;;;;;;5056998;28;7064;-59
2023/03/08 01:40:16;;;;;;;;;;;;;;;;;;5056762;28;6927;-59
2023/03/08 01:42:42;;;;;;;;;;;;;;;;;;5056866;28;7139;-59
2023/03/08 01:45:27;;;;;;;;;;;;;;;;;;5056290;28;6910;-59
2023/03/08 01:50:57;;;;;;;;;;;;;;;;;;5056718;28;6680;-59
2023/03/08 01:53:24;;;;;;;;;;;;;;;;;;5056613;28;7141;-59
2023/03/08 01:55:50;;;;;;;;;;;;;;;;;;5056599;28;7378;-59
2023/03/08 01:58:15;;;;;;;;;;;;;;;;;;5056716;28;7188;-59
2023/03/08 02:03:44;;;;;;;;;;;;;;;;;;5056231;28;6681;-59
2023/03/08 02:06:11;;;;;;;;;;;;;;;;;;5056429;28;7195;-59
2023/03/08 02:11:47;;;;;;;;;;;;;;;;;;5055104;28;6844;-59
2023/03/08 02:14:13;;;;;;;;;;;;;;;;;;5056282;28;7127;-59
2023/03/08 02:17:12;;;;;;;;;;;;;;;;;;5055904;28;7876;-58
2023/03/08 02:19:45;;;;;;;;;;;;;;;;;;5056187;28;7201;-59
2023/03/08 02:22:18;;;;;;;;;;;;;;;;;;5056148;28;7044;-58
2023/03/08 02:27:21;;;;;;;;;;;;;;;;;;5315223;22;6888;-63
2023/03/08 02:30:05;;;;;;;;;;;;;;;;;;5075781;28;7329;-63
2023/03/08 02:32:31;;;;;;;;;;;;;;;;;;5075994;28;7437;-63
2023/03/08 02:37:59;;;;;;;;;;;;;;;;;;5075659;28;6911;-63
2023/03/08 02:43:41;;;;;;;;;;;;;;;;;;5075575;28;7018;-59
2023/03/08 02:46:06;;;;;;;;;;;;;;;;;;5075630;28;7426;-58
2023/03/08 02:48:45;;;;;;;;;;;;;;;;;;5075589;28;7373;-58
2023/03/08 02:51:10;;;;;;;;;;;;;;;;;;5075628;28;7159;-58
2023/03/08 02:56:38;;;;;;;;;;;;;;;;;;5075316;28;6714;-59
2023/03/08 03:05:11;;;;;;;;;;;;;;;;;;5075159;28;6939;-58
2023/03/08 03:07:38;;;;;;;;;;;;;;;;;;5075408;28;7249;-58
2023/03/08 03:10:24;;;;;;;;;;;;;;;;;;5075797;28;7135;-59
2023/03/08 03:12:49;;;;;;;;;;;;;;;;;;5075792;28;7169;-58
2023/03/08 03:18:29;;;;;;;;;;;;;;;;;;5075222;28;6673;-58
2023/03/08 03:20:54;;;;;;;;;;;;;;;;;;5075065;28;6953;-58
2023/03/08 03:23:20;;;;;;;;;;;;;;;;;;5075307;28;7096;-58
2023/03/08 03:29:01;;;;;;;;;;;;;;;;;;5074526;28;7890;-58
2023/03/08 03:34:29;;;;;;;;;;;;;;;;;;5075493;28;6975;-58
2023/03/08 03:36:54;;;;;;;;;;;;;;;;;;5075216;28;7446;-58
2023/03/08 03:39:42;;;;;;;;;;;;;;;;;;5075382;28;7082;-58
2023/03/08 03:42:07;;;;;;;;;;;;;;;;;;5074781;28;7381;-58
2023/03/08 03:45:09;;;;;;;;;;;;;;;;;;5074759;28;7385;-58
2023/03/08 03:47:35;;;;;;;;;;;;;;;;;;5074696;28;7207;-59
2023/03/08 03:52:51;;;;;;;;;;;;;;;;;;5074907;28;7081;-58
2023/03/08 03:58:24;;;;;;;;;;;;;;;;;;5074369;28;6681;-59
2023/03/08 04:00:49;;;;;;;;;;;;;;;;;;5074684;28;7441;-58
2023/03/08 04:03:17;;;;;;;;;;;;;;;;;;5074405;28;7041;-58
2023/03/08 04:05:42;;;;;;;;;;;;;;;;;;5075760;28;7060;-63
2023/03/08 04:08:08;;;;;;;;;;;;;;;;;;5074521;28;7131;-63
2023/03/08 04:10:34;;;;;;;;;;;;;;;;;;5074527;28;7207;-63
2023/03/08 04:13:23;;;;;;;;;;;;;;;;;;5074380;28;7034;-63
2023/03/08 04:15:49;;;;;;;;;;;;;;;;;;5068358;28;9096;-63
2023/03/08 04:18:14;;;;;;;;;;;;;;;;;;5074407;28;7173;-63
2023/03/08 04:21:05;;;;;;;;;;;;;;;;;;5074498;28;7143;-63
2023/03/08 04:23:31;;;;;;;;;;;;;;;;;;5056768;28;6954;-63
2023/03/08 04:25:58;;;;;;;;;;;;;;;;;;5054357;28;7165;-63
2023/03/08 04:31:28;;;;;;;;;;;;;;;;;;5054089;28;6693;-63
2023/03/08 04:34:15;;;;;;;;;;;;;;;;;;5055534;28;7168;-63
2023/03/08 04:36:41;;;;;;;;;;;;;;;;;;5058044;28;7399;-63
2023/03/08 04:39:06;;;;;;;;;;;;;;;;;;5068832;28;7685;-63
2023/03/08 04:42:03;;;;;;;;;;;;;;;;;;5058263;28;7373;-63
2023/03/08 04:44:29;;;;;;;;;;;;;;;;;;5072709;28;7327;-63
2023/03/08 04:46:54;;;;;;;;;;;;;;;;;;5078073;28;6949;-63
2023/03/08 04:49:20;;;;;;;;;;;;;;;;;;5077975;28;7200;-63
2023/03/08 04:51:45;;;;;;;;;;;;;;;;;;5077844;28;6938;-63
2023/03/08 04:54:11;;;;;;;;;;;;;;;;;;5077849;28;6998;-63
2023/03/08 05:02:42;;;;;;;;;;;;;;;;;;5077528;28;6684;-63
2023/03/08 05:05:40;;;;;;;;;;;;;;;;;;5077728;28;7156;-63
2023/03/08 05:08:06;;;;;;;;;;;;;;;;;;5077489;28;6994;-63
2023/03/08 05:10:31;;;;;;;;;;;;;;;;;;5077566;28;7580;-64
2023/03/08 05:12:57;;;;;;;;;;;;;;;;;;5076906;28;7006;-63
2023/03/08 05:15:23;;;;;;;;;;;;;;;;;;5059904;28;7288;-63
2023/03/08 05:18:04;;;;;;;;;;;;;;;;;;5058080;28;7109;-63
2023/03/08 05:20:30;;;;;;;;;;;;;;;;;;5057221;28;7359;-63
2023/03/08 05:25:59;;;;;;;;;;;;;;;;;;5077216;28;6923;-63
2023/03/08 05:28:27;;;;;;;;;;;;;;;;;;5076348;28;7419;-63
2023/03/08 05:34:26;;;;;;;;;;;;;;;;;;5076813;28;6690;-63
2023/03/08 05:36:52;;;;;;;;;;;;;;;;;;5077016;28;7245;-63
2023/03/08 05:39:17;;;;;;;;;;;;;;;;;;5077345;28;7393;-63
2023/03/08 05:44:45;;;;;;;;;;;;;;;;;;5056508;28;6947;-63
2023/03/08 05:47:11;;;;;;;;;;;;;;;;;;5057433;28;7246;-63
2023/03/08 05:49:36;;;;;;;;;;;;;;;;;;5056581;28;6955;-63
2023/03/08 05:52:02;;;;;;;;;;;;;;;;;;5062923;28;6954;-63
2023/03/08 05:54:28;;;;;;;;;;;;;;;;;;5039560;28;7156;-63
2023/03/08 05:56:53;;;;;;;;;;;;;;;;;;5060452;28;7340;-62
2023/03/08 05:59:20;;;;;;;;;;;;;;;;;;5076335;28;6918;-64
2023/03/08 06:01:45;;;;;;;;;;;;;;;;;;5058583;28;8478;-53
2023/03/08 06:04:17;;;;;;;;;;;;;;;;;;5076470;28;7122;-55
2023/03/08 06:06:42;;;;;;;;;;;;;;;;;;5076435;28;7082;-49
2023/03/08 06:09:22;;;;;;;;;;;;;;;;;;5076398;28;7249;-56
2023/03/08 06:11:48;;;;;;;;;;;;;;;;;;5075447;28;7050;-55
2023/03/08 06:17:16;;;;;;;;;;;;;;;;;;5076056;28;6922;-54
2023/03/08 06:19:44;;;;;;;;;;;;;;;;;;5057663;28;7485;-60
2023/03/08 06:22:10;;;;;;;;;;;;;;;;;;5055732;28;7178;-60
2023/03/08 06:25:05;;;;;;;;;;;;;;;;;;5055738;28;7472;-61
2023/03/08 06:33:36;;;;;;;;;;;;;;;;;;5055520;28;6927;-61
2023/03/08 06:36:07;;;;;;;;;;;;;;;;;;5055988;28;7189;-61
2023/03/08 06:38:41;;;;;;;;;;;;;;;;;;5057119;28;7198;-61
2023/03/08 06:41:07;;;;;;;;;;;;;;;;;;5055854;28;7519;-62
2023/03/08 06:43:34;;;;;;;;;;;;;;;;;;5055785;28;7110;-61
2023/03/08 06:46:07;;;;;;;;;;;;;;;;;;5055792;28;7226;-61
2023/03/08 06:48:33;;;;;;;;;;;;;;;;;;5055628;28;7778;-62
2023/03/08 06:50:59;;;;;;;;;;;;;;;;;;5055265;28;7009;-61
2023/03/08 06:53:26;;;;;;;;;;;;;;;;;;5055586;28;7038;-61
2023/03/08 06:55:51;;;;;;;;;;;;;;;;;;5055281;28;7113;-61
2023/03/08 07:01:34;;;;;;;;;;;;;;;;;;5055338;28;6990;-61
2023/03/08 07:03:59;;;;;;;;;;;;;;;;;;5055688;28;7121;-61
2023/03/08 07:07:01;;;;;;;;;;;;;;;;;;5056094;28;7414;-61
2023/03/08 07:09:26;;;;;;;;;;;;;;;;;;5055399;28;7689;-61
2023/03/08 07:12:00;;;;;;;;;;;;;;;;;;5055227;28;7263;-61
2023/03/08 07:14:26;;;;;;;;;;;;;;;;;;5037290;28;7144;-61
2023/03/08 07:17:11;;;;;;;;;;;;;;;;;;5053485;28;6847;-61
2023/03/08 07:19:36;;;;;;;;;;;;;;;;;;5035531;28;7241;-61
2023/03/08 07:22:21;;;;;;;;;;;;;;;;;;5035092;28;7417;-61
2023/03/08 07:24:47;;;;;;;;;;;;;;;;;;5035097;28;7095;-61
2023/03/08 07:27:13;;;;;;;;;;;;;;;;;;5035520;28;7496;-61
2023/03/08 07:29:38;;;;;;;;;;;;;;;;;;5054995;28;7351;-61
2023/03/08 07:38:16;;;;;;;;;;;;;;;;;;5054748;28;6689;-61
2023/03/08 07:40:42;;;;;;;;;;;;;;;;;;5057074;28;7166;-62
2023/03/08 07:43:17;;;;;;;;;;;;;;;;;;5054745;28;7040;-62
2023/03/08 07:45:43;;;;;;;;;;;;;;;;;;5070898;28;7299;-61
2023/03/08 07:48:08;;;;;;;;;;;;;;;;;;5074823;28;7399;-61
2023/03/08 07:59:43;;;;;;;;;;;;;;;;;;5074380;28;7064;-61
2023/03/08 08:08:40;;;;;;;;;;;;;;;;;;5074512;28;6682;-61
2023/03/08 08:11:10;;;;;;;;;;;;;;;;;;5078758;28;7434;-61
2023/03/08 08:13:35;;;;;;;;;;;;;;;;;;5078351;28;7154;-61
2023/03/08 08:22:17;;;;;;;;;;;;;;;;;;5078256;28;6915;-61
2023/03/08 08:24:43;;;;;;;;;;;;;;;;;;5077713;28;7216;-62
2023/03/08 08:30:18;;;;;;;;;;;;;;;;;;5058179;28;6746;-62
2023/03/08 08:32:44;;;;;;;;;;;;;;;;;;5058690;28;7218;-62
2023/03/08 08:35:10;;;;;;;;;;;;;;;;;;5058115;28;7233;-62
2023/03/08 08:40:38;;;;;;;;;;;;;;;;;;5057786;28;6956;-62
2023/03/08 08:46:09;;;;;;;;;;;;;;;;;;5058052;28;6689;-62
2023/03/08 08:48:36;;;;;;;;;;;;;;;;;;5057994;28;6924;-62
2023/03/08 08:51:38;;;;;;;;;;;;;;;;;;5058025;28;6928;-62
2023/03/08 08:54:03;;;;;;;;;;;;;;;;;;5057850;28;7187;-62
2023/03/08 08:56:50;;;;;;;;;;;;;;;;;;5057366;28;6956;-62
2023/03/08 08:59:16;;;;;;;;;;;;;;;;;;5058101;28;7362;-62
2023/03/08 09:01:49;;;;;;;;;;;;;;;;;;5057654;28;7064;-62
2023/03/08 09:04:15;;;;;;;;;;;;;;;;;;5039648;28;7063;-62
2023/03/08 09:06:41;;;;;;;;;;;;;;;;;;5039559;28;7285;-62
2023/03/08 09:09:06;;;;;;;;;;;;;;;;;;5057755;28;7241;-62
2023/03/08 09:11:42;;;;;;;;;;;;;;;;;;5057537;28;7194;-62
2023/03/08 09:14:07;;;;;;;;;;;;;;;;;;5058320;28;7502;-62
2023/03/08 09:16:33;;;;;;;;;;;;;;;;;;5057182;28;7018;-62
2023/03/08 09:19:00;;;;;;;;;;;;;;;;;;5057072;28;7129;-62
2023/03/08 09:21:54;;;;;;;;;;;;;;;;;;5057106;28;7403;-62
2023/03/08 09:24:19;;;;;;;;;;;;;;;;;;5057460;28;7063;-62
2023/03/08 09:26:45;;;;;;;;;;;;;;;;;;5057201;28;7390;-62
2023/03/08 09:29:10;;;;;;;;;;;;;;;;;;5068912;28;7327;-62
2023/03/08 09:31:36;;;;;;;;;;;;;;;;;;5059042;28;7234;-62
2023/03/08 09:34:14;;;;;;;;;;;;;;;;;;5077049;28;7142;-62
2023/03/08 09:36:40;;;;;;;;;;;;;;;;;;5076984;28;6960;-62
2023/03/08 09:48:32;;;;;;;;;;;;;;;;;;5076753;28;6685;-62
2023/03/08 09:51:02;;;;;;;;;;;;;;;;;;5076770;28;7223;-62
2023/03/08 09:53:32;;;;;;;;;;;;;;;;;;5076584;28;6961;-62
2023/03/08 09:56:32;;;;;;;;;;;;;;;;;;5076739;28;7365;-62
2023/03/08 09:59:07;;;;;;;;;;;;;;;;;;5076617;28;7032;-62
2023/03/08 10:01:43;;;;;;;;;;;;;;;;;;5076683;28;7146;-62
2023/03/08 10:04:11;;;;;;;;;;;;;;;;;;5076427;28;7311;-62
2023/03/08 10:06:40;;;;;;;;;;;;;;;;;;5076577;28;7155;-62
2023/03/08 10:09:17;;;;;;;;;;;;;;;;;;5076524;28;7381;-62
2023/03/08 10:12:16;;;;;;;;;;;;;;;;;;5077560;28;7150;-62
2023/03/08 10:14:45;;;;;;;;;;;;;;;;;;5077311;28;7451;-62
2023/03/08 10:17:16;;;;;;;;;;;;;;;;;;5077410;28;7087;-62
2023/03/08 10:28:42;;;;;;;;;;;;;;;;;;5075611;28;6889;-62
2023/03/08 10:31:27;;;;;;;;;;;;;;;;;;5075239;28;7279;-62
2023/03/08 10:34:16;;;;;;;;;;;;;;;;;;5075949;28;7238;-62
2023/03/08 10:36:59;;;;;;;;;;;;;;;;;;5075859;28;7447;-62
2023/03/08 10:39:25;;;;;;;;;;;;;;;;;;5075836;28;7171;-62
2023/03/08 10:44:52;;;;;;;;;;;;;;;;;;5076161;28;6952;-62
2023/03/08 10:47:24;;;;;;;;;;;;;;;;;;5075853;28;7210;-62
2023/03/08 10:52:52;;;;;;;;;;;;;;;;;;5075341;28;6963;-62
2023/03/08 10:55:22;;;;;;;;;;;;;;;;;;5075557;28;7179;-62
2023/03/08 10:58:18;;;;;;;;;;;;;;;;;;5075225;28;7152;-62
2023/03/08 11:04:10;;;;;;;;;;;;;;;;;;5075211;28;6935;-62
2023/03/08 11:06:36;;;;;;;;;;;;;;;;;;5075705;28;7269;-62
2023/03/08 11:09:03;;;;;;;;;;;;;;;;;;5075021;28;7178;-62
2023/03/08 11:14:32;;;;;;;;;;;;;;;;;;5075340;28;6916;-62
2023/03/08 11:17:28;;;;;;;;;;;;;;;;;;5075098;28;7138;-62
2023/03/08 11:19:59;;;;;;;;;;;;;;;;;;5074776;28;7177;-62
2023/03/08 11:22:59;;;;;;;;;;;;;;;;;;5074995;28;7462;-62
2023/03/08 11:28:39;;;;;;;;;;;;;;;;;;5074900;28;6936;-62
2023/03/08 11:34:11;;;;;;;;;;;;;;;;;;5074802;28;6733;-62
2023/03/08 11:36:48;;;;;;;;;;;;;;;;;;5074880;28;7419;-62
2023/03/08 11:39:24;;;;;;;;;;;;;;;;;;5074874;28;7017;-62
2023/03/08 11:41:59;;;;;;;;;;;;;;;;;;5057096;28;7061;-62
2023/03/08 11:47:52;;;;;;;;;;;;;;;;;;5075440;28;6793;-62
2023/03/08 11:50:24;;;;;;;;;;;;;;;;;;5074778;28;7178;-62
2023/03/08 11:53:22;;;;;;;;;;;;;;;;;;5075777;28;7340;-62
2023/03/08 12:02:33;;;;;;;;;;;;;;;;;;5074627;28;6916;-62
2023/03/08 12:05:00;;;;;;;;;;;;;;;;;;5059376;28;7030;-61
2023/03/08 12:10:46;;;;;;;;;;;;;;;;;;5074007;28;6678;-61
2023/03/08 12:13:21;;;;;;;;;;;;;;;;;;5058980;28;7079;-61
2023/03/08 12:15:54;;;;;;;;;;;;;;;;;;5054504;28;7118;-61
2023/03/08 12:18:49;;;;;;;;;;;;;;;;;;5036084;28;7028;-61
2023/03/08 12:21:17;;;;;;;;;;;;;;;;;;5048912;28;7050;-61
2023/03/08 12:23:50;;;;;;;;;;;;;;;;;;5074212;28;7163;-61
2023/03/08 12:26:23;;;;;;;;;;;;;;;;;;5074264;28;7000;-61
2023/03/08 12:29:10;;;;;;;;;;;;;;;;;;5074373;28;7322;-61
2023/03/08 12:31:40;;;;;;;;;;;;;;;;;;5074274;28;7224;-61
2023/03/08 12:34:26;;;;;;;;;;;;;;;;;;5074551;28;7152;-61
2023/03/08 12:36:51;;;;;;;;;;;;;;;;;;5072107;28;7341;-53
2023/03/08 12:39:42;;;;;;;;;;;;;;;;;;5074409;28;7089;-50
2023/03/08 12:42:07;;;;;;;;;;;;;;;;;;5074160;28;7346;-60
2023/03/08 12:44:32;;;;;;;;;;;;;;;;;;5074630;28;7376;-60
2023/03/08 12:47:19;;;;;;;;;;;;;;;;;;5073985;28;7213;-60
2023/03/08 12:49:55;;;;;;;;;;;;;;;;;;5074261;28;7003;-61
2023/03/08 12:52:45;;;;;;;;;;;;;;;;;;5074184;28;7421;-61
2023/03/08 12:58:16;;;;;;;;;;;;;;;;;;5077633;28;7060;-61
2023/03/08 13:01:01;;;;;;;;;;;;;;;;;;5077830;28;7493;-61
2023/03/08 13:03:34;;;;;;;;;;;;;;;;;;5077699;28;7369;-61
2023/03/08 13:06:00;;;;;;;;;;;;;;;;;;5074304;28;7428;-61
2023/03/08 13:08:42;;;;;;;;;;;;;;;;;;5077461;28;7218;-61
2023/03/08 13:17:34;;;;;;;;;;;;;;;;;;5077315;28;6682;-61
2023/03/08 13:20:17;;;;;;;;;;;;;;;;;;5077404;28;7500;-61
2023/03/08 13:22:48;;;;;;;;;;;;;;;;;;5076983;28;7939;-61
2023/03/08 13:25:34;;;;;;;;;;;;;;;;;;5077393;28;7111;-61
2023/03/08 13:28:05;;;;;;;;;;;;;;;;;;5077416;28;7129;-61
2023/03/08 13:30:45;;;;;;;;;;;;;;;;;;5078024;28;7148;-61
2023/03/08 13:33:20;;;;;;;;;;;;;;;;;;5077151;28;7086;-61
2023/03/08 13:35:56;;;;;;;;;;;;;;;;;;5077161;28;7158;-61
2023/03/08 13:38:24;;;;;;;;;;;;;;;;;;5077181;28;7212;-61
2023/03/08 13:43:59;;;;;;;;;;;;;;;;;;5076630;28;6685;-61
2023/03/08 13:51:29;;;;;;;;;;;;;;;;;;5054542;28;7338;-51
2023/03/08 13:53:55;;;;;;;;;;;;;;;;;;5056458;28;7042;-49
2023/03/08 13:56:24;;;;;;;;;;;;;;;;;;5056631;28;7179;-51
2023/03/08 13:59:12;;;;;;;;;;;;;;;;;;5056426;28;7407;-52
2023/03/08 14:01:45;;;;;;;;;;;;;;;;;;5056400;28;7175;-51
2023/03/08 14:04:17;;;;;;;;;;;;;;;;;;5056801;28;7202;-48
2023/03/08 14:09:45;;;;;;;;;;;;;;;;;;5056592;28;6921;-51
2023/03/08 14:12:44;;;;;;;;;;;;;;;;;;5056934;28;7055;-49
2023/03/08 14:15:16;;;;;;;;;;;;;;;;;;5057188;28;7027;-51
2023/03/08 14:17:42;;;;;;;;;;;;;;;;;;5056285;28;7532;-52
2023/03/08 14:20:19;;;;;;;;;;;;;;;;;;5056409;28;7151;-53
2023/03/08 14:22:47;;;;;;;;;;;;;;;;;;5056068;28;7143;-49
2023/03/08 14:34:23;;;;;;;;;;;;;;;;;;5055921;28;7071;-53
2023/03/08 14:37:03;;;;;;;;;;;;;;;;;;5055433;28;6968;-52
2023/03/08 14:39:30;;;;;;;;;;;;;;;;;;5055981;28;7056;-50
2023/03/08 14:44:59;;;;;;;;;;;;;;;;;;5055897;28;6983;-49
2023/03/08 14:50:32;;;;;;;;;;;;;;;;;;5055080;28;6982;-53
2023/03/08 14:53:21;;;;;;;;;;;;;;;;;;5055284;28;6952;-53
2023/03/08 14:55:47;;;;;;;;;;;;;;;;;;5056380;28;7147;-52
2023/03/08 14:58:29;;;;;;;;;;;;;;;;;;5055883;28;7223;-50
2023/03/08 15:00:56;;;;;;;;;;;;;;;;;;5055483;28;7077;-52
2023/03/08 15:03:24;;;;;;;;;;;;;;;;;;5037583;28;9088;-51
2023/03/08 15:11:44;;;;;;;;;;;;;;;;;;5055639;28;6905;-53
2023/03/08 15:14:11;;;;;;;;;;;;;;;;;;5055088;28;7393;-52
2023/03/08 15:16:37;;;;;;;;;;;;;;;;;;5055225;28;7035;-55
2023/03/08 15:19:03;;;;;;;;;;;;;;;;;;5054798;28;7176;-51
2023/03/08 15:24:31;;;;;;;;;;;;;;;;;;5054917;28;7464;-50
2023/03/08 15:26:56;;;;;;;;;;;;;;;;;;5037530;28;8760;-52
2023/03/08 15:29:30;;;;;;;;;;;;;;;;;;5055018;28;6833;-52
2023/03/08 15:35:04;;;;;;;;;;;;;;;;;;5054837;28;6829;-51
2023/03/08 15:37:29;;;;;;;;;;;;;;;;;;5054548;28;7214;-49
2023/03/08 15:39:59;;;;;;;;;;;;;;;;;;5054881;28;7152;-51
2023/03/08 15:42:24;;;;;;;;;;;;;;;;;;5054501;28;6975;-51
2023/03/08 15:44:50;;;;;;;;;;;;;;;;;;5054859;28;7053;-53
2023/03/08 15:47:15;;;;;;;;;;;;;;;;;;5054880;28;7063;-49
2023/03/08 15:53:14;;;;;;;;;;;;;;;;;;5054454;28;6678;-50
2023/03/08 15:55:40;;;;;;;;;;;;;;;;;;5054378;28;7355;-51
2023/03/08 15:58:29;;;;;;;;;;;;;;;;;;5055040;28;7116;-54
2023/03/08 16:00:55;;;;;;;;;;;;;;;;;;5054701;28;7934;-50
2023/03/08 16:03:42;;;;;;;;;;;;;;;;;;5055345;28;7206;-54
2023/03/08 16:06:12;;;;;;;;;;;;;;;;;;5053578;28;8379;-54
2023/03/08 16:08:38;;;;;;;;;;;;;;;;;;5054589;28;7827;-50
2023/03/08 16:11:21;;;;;;;;;;;;;;;;;;5036645;28;7063;-52
2023/03/08 16:13:49;;;;;;;;;;;;;;;;;;5054356;28;7330;-49
2023/03/08 16:16:14;;;;;;;;;;;;;;;;;;5054543;28;7486;-52
2023/03/08 16:18:59;;;;;;;;;;;;;;;;;;5054577;28;7190;-57
2023/03/08 16:21:24;;;;;;;;;;;;;;;;;;5054102;28;7929;-54
2023/03/08 16:23:50;;;;;;;;;;;;;;;;;;5054354;28;6979;-54
2023/03/08 16:29:18;;;;;;;;;;;;;;;;;;5054417;28;6669;-52
2023/03/08 16:31:43;;;;;;;;;;;;;;;;;;5059348;28;7172;-51
2023/03/08 16:34:26;;;;;;;;;;;;;;;;;;5058440;28;7150;-54
2023/03/08 16:36:53;;;;;;;;;;;;;;;;;;5058171;28;7105;-52
2023/03/08 16:42:25;;;;;;;;;;;;;;;;;;5058002;28;6678;-52
2023/03/08 16:44:52;;;;;;;;;;;;;;;;;;5058153;28;7005;-53
2023/03/08 16:47:19;;;;;;;;;;;;;;;;;;5058049;28;7106;-53
2023/03/08 16:53:23;;;;;;;;;;;;;;;;;;5057705;28;7080;-52
2023/03/08 16:55:49;;;;;;;;;;;;;;;;;;5058707;28;7199;-51
2023/03/08 16:58:14;;;;;;;;;;;;;;;;;;5057975;28;7207;-52
2023/03/08 17:00:56;;;;;;;;;;;;;;;;;;5057579;28;6927;-54
2023/03/08 17:03:21;;;;;;;;;;;;;;;;;;5057526;28;7183;-52
2023/03/08 17:05:48;;;;;;;;;;;;;;;;;;5039824;28;7421;-50
2023/03/08 17:08:15;;;;;;;;;;;;;;;;;;5057643;28;7187;-49
2023/03/08 17:10:43;;;;;;;;;;;;;;;;;;5057599;28;7552;-51
2023/03/08 17:13:09;;;;;;;;;;;;;;;;;;5057278;28;7142;-50
2023/03/08 17:15:39;;;;;;;;;;;;;;;;;;5057415;28;7042;-50
2023/03/08 17:18:05;;;;;;;;;;;;;;;;;;5057558;28;7414;-54
2023/03/08 17:23:33;;;;;;;;;;;;;;;;;;5057148;28;6678;-51
2023/03/08 17:26:05;;;;;;;;;;;;;;;;;;5056984;28;7003;-49
2023/03/08 17:28:30;;;;;;;;;;;;;;;;;;5057396;28;7400;-50
2023/03/08 17:30:56;;;;;;;;;;;;;;;;;;5057321;28;7064;-50
2023/03/08 17:33:24;;;;;;;;;;;;;;;;;;5057191;28;7113;-52
2023/03/08 17:35:55;;;;;;;;;;;;;;;;;;5056693;28;7189;-49
2023/03/08 17:38:21;;;;;;;;;;;;;;;;;;5057224;28;7093;-50
2023/03/08 17:40:46;;;;;;;;;;;;;;;;;;5056688;28;7009;-53
2023/03/08 17:43:12;;;;;;;;;;;;;;;;;;5056960;28;7815;-54
2023/03/08 17:45:38;;;;;;;;;;;;;;;;;;5057001;28;6959;-54
2023/03/08 17:51:08;;;;;;;;;;;;;;;;;;5055314;28;6669;-52
2023/03/08 17:56:56;;;;;;;;;;;;;;;;;;5056596;28;6681;-49
2023/03/08 17:59:22;;;;;;;;;;;;;;;;;;5056251;28;7142;-52
2023/03/08 18:01:47;;;;;;;;;;;;;;;;;;5055499;28;7112;-50
2023/03/08 18:10:34;;;;;;;;;;;;;;;;;;5056216;28;6932;-49
2023/03/08 18:12:59;;;;;;;;;;;;;;;;;;5056322;28;7278;-53
2023/03/08 18:15:57;;;;;;;;;;;;;;;;;;5055849;28;6926;-51
2023/03/08 18:18:22;;;;;;;;;;;;;;;;;;5056464;28;7704;-52
2023/03/08 18:21:01;;;;;;;;;;;;;;;;;;5056224;28;7401;-55
2023/03/08 18:23:28;;;;;;;;;;;;;;;;;;5056547;28;7424;-52
2023/03/08 18:26:05;;;;;;;;;;;;;;;;;;5056268;28;7290;-53
2023/03/08 18:28:32;;;;;;;;;;;;;;;;;;5056376;28;7248;-50
2023/03/08 18:34:17;;;;;;;;;;;;;;;;;;5055868;28;6962;-52
2023/03/08 18:36:43;;;;;;;;;;;;;;;;;;5055865;28;7225;-52
2023/03/08 18:39:18;;;;;;;;;;;;;;;;;;5055813;28;7223;-53
2023/03/08 18:41:43;;;;;;;;;;;;;;;;;;5055171;28;7042;-52
2023/03/08 18:44:11;;;;;;;;;;;;;;;;;;5055363;28;7084;-52
2023/03/08 18:46:37;;;;;;;;;;;;;;;;;;5055367;28;7348;-50
2023/03/08 18:49:14;;;;;;;;;;;;;;;;;;5056075;28;7181;-52
2023/03/08 18:51:42;;;;;;;;;;;;;;;;;;5055096;28;7195;-51
2023/03/08 18:54:13;;;;;;;;;;;;;;;;;;5055231;28;7005;-55
2023/03/08 18:56:48;;;;;;;;;;;;;;;;;;5056033;28;6927;-50
2023/03/08 18:59:14;;;;;;;;;;;;;;;;;;5055800;28;7495;-53
2023/03/08 19:01:52;;;;;;;;;;;;;;;;;;5055516;28;7121;-68
2023/03/08 19:04:18;;;;;;;;;;;;;;;;;;5055501;28;7206;-69
2023/03/08 19:12:49;;;;;;;;;;;;;;;;;;5055147;28;6677;-69
2023/03/08 19:15:15;;;;;;;;;;;;;;;;;;5055248;28;7192;-68
2023/03/08 19:17:53;;;;;;;;;;;;;;;;;;5055095;28;7293;-68
2023/03/08 19:20:28;;;;;;;;;;;;;;;;;;5055298;28;7126;-68
2023/03/08 19:22:53;;;;;;;;;;;;;;;;;;5055703;28;7413;-69
2023/03/08 19:25:19;;;;;;;;;;;;;;;;;;5055101;28;7093;-68
2023/03/08 19:27:44;;;;;;;;;;;;;;;;;;5055171;28;7258;-69
2023/03/08 19:30:27;;;;;;;;;;;;;;;;;;5055058;28;6908;-69
2023/03/08 19:32:53;;;;;;;;;;;;;;;;;;5054995;28;7140;-68
2023/03/08 19:35:38;;;;;;;;;;;;;;;;;;5054951;28;6951;-69
2023/03/08 19:38:04;;;;;;;;;;;;;;;;;;5055554;28;7437;-69
2023/03/08 19:40:29;;;;;;;;;;;;;;;;;;5054985;28;6929;-68
2023/03/08 19:43:16;;;;;;;;;;;;;;;;;;5054876;28;7193;-69
2023/03/08 19:45:46;;;;;;;;;;;;;;;;;;5054565;28;7182;-68
2023/03/08 19:48:12;;;;;;;;;;;;;;;;;;5055376;28;7290;-68
2023/03/08 19:50:45;;;;;;;;;;;;;;;;;;5054788;28;7011;-68
2023/03/08 19:53:10;;;;;;;;;;;;;;;;;;5054330;28;7152;-68
2023/03/08 19:55:36;;;;;;;;;;;;;;;;;;5055862;28;7098;-68
2023/03/08 20:01:01;;;;;;;;;;;;;;;;;;5055644;28;6950;-68
2023/03/08 20:03:26;;;;;;;;;;;;;;;;;;5055194;28;7005;-68
2023/03/08 20:09:12;;;;;;;;;;;;;;;;;;5061015;28;6673;-69
2023/03/08 20:11:39;;;;;;;;;;;;;;;;;;5061310;28;6938;-68
2023/03/08 20:14:20;;;;;;;;;;;;;;;;;;5060746;28;7147;-68
2023/03/08 20:16:45;;;;;;;;;;;;;;;;;;5061099;28;7308;-68
2023/03/08 20:19:11;;;;;;;;;;;;;;;;;;5061217;28;7108;-70
2023/03/08 20:24:39;;;;;;;;;;;;;;;;;;5061009;28;6908;-71
2023/03/08 20:27:10;;;;;;;;;;;;;;;;;;5061038;28;7162;-71
2023/03/08 20:29:35;;;;;;;;;;;;;;;;;;5061158;28;7058;-71
2023/03/08 20:32:01;;;;;;;;;;;;;;;;;;5060961;28;7002;-71
2023/03/08 20:37:30;;;;;;;;;;;;;;;;;;5060700;28;6677;-70
2023/03/08 20:40:27;;;;;;;;;;;;;;;;;;5061049;28;6939;-71
2023/03/08 20:42:56;;;;;;;;;;;;;;;;;;5060464;28;8153;-71
2023/03/08 20:45:24;;;;;;;;;;;;;;;;;;5060962;28;7245;-71
2023/03/08 20:48:08;;;;;;;;;;;;;;;;;;5060892;28;7060;-71
2023/03/08 20:50:34;;;;;;;;;;;;;;;;;;5060792;28;7324;-71
2023/03/08 20:53:00;;;;;;;;;;;;;;;;;;5060840;28;7126;-70
2023/03/08 20:55:25;;;;;;;;;;;;;;;;;;5060001;28;8403;-71
2023/03/08 20:57:51;;;;;;;;;;;;;;;;;;5049085;28;7350;-71
2023/03/08 21:00:28;;;;;;;;;;;;;;;;;;5060380;28;7137;-71
2023/03/08 21:02:54;;;;;;;;;;;;;;;;;;5060409;28;7092;-70
2023/03/08 21:05:20;;;;;;;;;;;;;;;;;;5060698;28;7086;-70
2023/03/08 21:08:01;;;;;;;;;;;;;;;;;;5060671;28;7399;-70
2023/03/08 21:10:28;;;;;;;;;;;;;;;;;;5060677;28;7201;-71
2023/03/08 21:13:05;;;;;;;;;;;;;;;;;;5060519;28;7148;-71
2023/03/08 21:15:31;;;;;;;;;;;;;;;;;;5058587;28;7238;-71
2023/03/08 21:18:10;;;;;;;;;;;;;;;;;;5057507;28;7206;-71
2023/03/08 21:20:36;;;;;;;;;;;;;;;;;;5057365;28;7401;-71
2023/03/08 21:23:22;;;;;;;;;;;;;;;;;;5057377;28;7130;-71
2023/03/08 21:25:49;;;;;;;;;;;;;;;;;;5057336;28;7375;-71
2023/03/08 21:28:15;;;;;;;;;;;;;;;;;;5082507;22;7978;-70
2023/03/08 21:30:41;;;;;;;;;;;;;;;;;;4999863;28;8709;-71
2023/03/08 21:33:06;;;;;;;;;;;;;;;;;;5005078;28;8746;-71
2023/03/08 21:35:36;;;;;;;;;;;;;;;;;;4996781;28;8646;-71
2023/03/08 21:38:09;;;;;;;;;;;;;;;;;;4996502;28;6962;-71
2023/03/08 21:40:45;;;;;;;;;;;;;;;;;;4978483;28;7266;-71
2023/03/08 21:43:10;;;;;;;;;;;;;;;;;;4997366;28;7284;-71
2023/03/08 21:46:14;;;;;;;;;;;;;;;;;;4997529;28;7328;-71
2023/03/08 21:48:40;;;;;;;;;;;;;;;;;;4937746;29;7485;-71
2023/03/08 21:51:41;;;;;;;;;;;;;;;;;;4937128;29;7141;-71
2023/03/08 21:54:06;;;;;;;;;;;;;;;;;;4937393;29;9299;-70
2023/03/08 21:56:40;;;;;;;;;;;;;;;;;;4937444;29;7391;-70
2023/03/08 21:59:06;;;;;;;;;;;;;;;;;;4937595;29;7003;-71
2023/03/08 22:01:31;;;;;;;;;;;;;;;;;;4937488;29;7005;-71
2023/03/08 22:03:58;;;;;;;;;;;;;;;;;;4937364;29;7265;-70